createdAt,value
2018-01-23T00:02:12.971Z,47.67
2018-01-23T00:04:40.731Z,44.00
2018-01-23T00:07:09.235Z,47.27
2018-01-23T00:09:36.772Z,42.30
2018-01-23T00:12:04.315Z,40.97
2018-01-23T00:14:32.179Z,43.67
2018-01-23T00:17:00.362Z,44.73
2018-01-23T00:19:27.888Z,41.50
2018-01-23T00:21:56.054Z,44.43
2018-01-23T00:24:24.370Z,42.47
2018-01-23T00:26:52.124Z,41.00
2018-01-23T00:29:19.996Z,44.13
2018-01-23T00:31:47.521Z,40.93
2018-01-23T00:34:16.158Z,44.60
2018-01-23T00:36:43.675Z,40.53
2018-01-23T00:39:11.371Z,41.30
2018-01-23T00:41:39.762Z,39.90
2018-01-23T00:44:08.223Z,39.27
2018-01-23T00:46:36.157Z,40.77
2018-01-23T00:49:04.640Z,44.20
2018-01-23T00:51:33.067Z,40.93
2018-01-23T00:54:00.676Z,39.33
2018-01-23T00:56:28.331Z,44.10
2018-01-23T00:58:55.831Z,42.47
2018-01-23T01:01:24.255Z,41.83
2018-01-23T01:03:51.771Z,43.77
2018-01-23T01:06:19.263Z,41.33
2018-01-23T01:08:47.567Z,46.17
2018-01-23T01:11:15.892Z,46.97
2018-01-23T01:13:43.404Z,44.23
2018-01-23T01:16:11.678Z,45.63
2018-01-23T01:18:39.636Z,39.40
2018-01-23T01:21:07.137Z,43.53
2018-01-23T01:23:35.602Z,40.03
2018-01-23T01:26:04.030Z,45.80
2018-01-23T01:28:31.988Z,48.13
2018-01-23T01:30:59.493Z,44.60
2018-01-23T01:33:27.057Z,44.40
2018-01-23T01:35:54.604Z,47.00
2018-01-23T01:38:22.147Z,46.03
2018-01-23T01:40:49.825Z,39.90
2018-01-23T01:43:17.351Z,45.77
2018-01-23T01:45:44.926Z,46.83
2018-01-23T01:48:12.972Z,46.20
2018-01-23T01:50:40.968Z,44.30
2018-01-23T01:53:08.497Z,46.77
2018-01-23T01:55:36.147Z,42.40
2018-01-23T01:58:03.699Z,45.23
2018-01-23T02:00:31.388Z,44.57
2018-01-23T02:02:59.108Z,47.03
2018-01-23T02:05:27.743Z,48.37
2018-01-23T02:07:55.406Z,43.70
2018-01-23T02:10:23.274Z,51.57
2018-01-23T02:12:51.245Z,49.17
2018-01-23T02:15:19.011Z,47.27
2018-01-23T02:17:47.060Z,54.10
2018-01-23T02:20:14.643Z,51.97
2018-01-23T02:22:42.813Z,49.73
2018-01-23T02:25:10.665Z,48.40
2018-01-23T02:27:38.583Z,49.97
2018-01-23T02:30:06.730Z,46.67
2018-01-23T02:32:34.248Z,49.17
2018-01-23T02:35:03.376Z,53.13
2018-01-23T02:37:31.067Z,51.17
2018-01-23T02:39:59.203Z,51.33
2018-01-23T02:42:27.144Z,54.33
2018-01-23T02:44:55.970Z,56.73
2018-01-23T02:47:24.174Z,47.57
2018-01-23T02:49:52.069Z,53.00
2018-01-23T02:52:19.705Z,50.70
2018-01-23T02:54:47.221Z,56.93
2018-01-23T02:57:15.604Z,48.93
2018-01-23T02:59:43.109Z,54.10
2018-01-23T03:02:11.795Z,52.30
2018-01-23T03:04:40.098Z,57.00
2018-01-23T03:07:08.379Z,53.40
2018-01-23T03:09:36.643Z,49.70
2018-01-23T03:12:04.173Z,49.70
2018-01-23T03:14:31.840Z,56.63
2018-01-23T03:16:59.358Z,58.07
2018-01-23T03:19:26.995Z,54.67
2018-01-23T03:21:55.466Z,54.17
2018-01-23T03:24:22.983Z,53.10
2018-01-23T03:26:50.583Z,58.30
2018-01-23T03:29:20.064Z,62.07
2018-01-23T03:31:48.382Z,57.77
2018-01-23T03:34:15.927Z,61.60
2018-01-23T03:36:43.459Z,65.17
2018-01-23T03:39:11.650Z,57.40
2018-01-23T03:41:40.710Z,58.60
2018-01-23T03:44:08.671Z,58.63
2018-01-23T03:46:36.220Z,60.50
2018-01-23T03:49:03.858Z,60.27
2018-01-23T03:51:32.262Z,66.53
2018-01-23T03:54:00.665Z,57.03
2018-01-23T03:56:28.251Z,60.03
2018-01-23T03:58:55.777Z,69.10
2018-01-23T04:01:23.943Z,60.00
2018-01-23T04:03:52.258Z,58.20
2018-01-23T04:06:19.890Z,63.60
2018-01-23T04:08:48.216Z,63.40
2018-01-23T04:11:15.726Z,57.70
2018-01-23T04:13:43.590Z,60.70
2018-01-23T04:16:11.745Z,54.87
2018-01-23T04:18:40.132Z,58.20
2018-01-23T04:21:07.633Z,66.93
2018-01-23T04:23:35.167Z,58.97
2018-01-23T04:26:02.684Z,59.70
2018-01-23T04:28:31.203Z,62.50
2018-01-23T04:30:59.022Z,68.33
2018-01-23T04:33:26.608Z,61.10
2018-01-23T04:35:54.138Z,55.67
2018-01-23T04:38:22.880Z,57.17
2018-01-23T04:40:50.484Z,67.00
2018-01-23T04:43:18.010Z,58.73
2018-01-23T04:45:45.646Z,58.57
2018-01-23T04:48:13.231Z,54.37
2018-01-23T04:50:41.263Z,58.17
2018-01-23T04:53:08.851Z,59.40
2018-01-23T04:55:37.637Z,56.23
2018-01-23T04:58:06.430Z,58.43
2018-01-23T05:00:34.063Z,56.70
2018-01-23T05:03:02.668Z,56.50
2018-01-23T05:05:31.634Z,55.07
2018-01-23T05:07:59.909Z,56.47
2018-01-23T05:10:28.321Z,64.93
2018-01-23T05:12:55.880Z,73.83
2018-01-23T05:15:24.242Z,59.53
2018-01-23T05:17:52.863Z,55.97
2018-01-23T05:20:20.391Z,57.97
2018-01-23T05:22:48.449Z,59.90
2018-01-23T05:25:16.729Z,58.23
2018-01-23T05:27:44.319Z,66.07
2018-01-23T05:30:11.858Z,58.23
2018-01-23T05:32:41.108Z,55.37
2018-01-23T05:35:08.746Z,58.43
2018-01-23T05:37:36.450Z,70.50
2018-01-23T05:40:04.056Z,83.93
2018-01-23T05:42:31.851Z,70.37
2018-01-23T05:45:00.198Z,53.93
2018-01-23T05:47:28.299Z,52.67
2018-01-23T05:49:55.934Z,55.13
2018-01-23T05:52:24.393Z,53.20
2018-01-23T05:54:52.703Z,64.27
2018-01-23T05:57:20.264Z,73.57
2018-01-23T05:59:47.801Z,57.40
2018-01-23T06:02:16.132Z,54.53
2018-01-23T06:04:44.116Z,51.20
2018-01-23T06:07:13.154Z,59.77
2018-01-23T06:09:42.262Z,53.67
2018-01-23T06:12:09.877Z,59.77
2018-01-23T06:14:37.758Z,53.40
2018-01-23T06:17:05.988Z,47.10
2018-01-23T06:19:33.604Z,55.80
2018-01-23T06:22:02.073Z,63.73
2018-01-23T06:24:30.291Z,59.80
2018-01-23T06:26:57.917Z,72.83
2018-01-23T06:29:25.472Z,43.90
2018-01-23T06:31:53.055Z,45.77
2018-01-23T06:34:20.601Z,42.57
2018-01-23T06:36:48.294Z,43.33
2018-01-23T06:39:15.828Z,48.90
2018-01-23T06:41:43.602Z,43.00
2018-01-23T06:44:12.325Z,38.33
2018-01-23T06:46:39.881Z,40.53
2018-01-23T06:49:07.460Z,44.83
2018-01-23T06:51:34.983Z,70.07
2018-01-23T06:54:02.779Z,54.93
2018-01-23T06:56:30.595Z,47.83
2018-01-23T06:58:58.256Z,42.70
2018-01-23T07:01:26.709Z,47.27
2018-01-23T07:03:54.239Z,54.60
2018-01-23T07:06:23.429Z,53.67
2018-01-23T07:08:50.937Z,50.27
2018-01-23T07:11:18.718Z,53.20
2018-01-23T07:13:47.506Z,53.60
2018-01-23T07:16:15.097Z,54.03
2018-01-23T07:18:42.735Z,51.70
2018-01-23T07:21:10.324Z,56.83
2018-01-23T07:23:37.862Z,51.37
2018-01-23T07:26:05.729Z,53.20
2018-01-23T07:28:34.035Z,51.93
2018-01-23T07:31:02.180Z,55.47
2018-01-23T07:33:29.888Z,47.90
2018-01-23T07:35:58.588Z,52.20
2018-01-23T07:38:26.441Z,58.63
2018-01-23T07:40:55.302Z,51.20
2018-01-23T07:43:23.216Z,49.30
2018-01-23T07:45:51.038Z,50.47
2018-01-23T07:48:18.683Z,50.93
2018-01-23T07:50:46.259Z,50.70
2018-01-23T07:53:14.254Z,48.87
2018-01-23T07:55:42.588Z,50.07
2018-01-23T07:58:10.117Z,47.87
2018-01-23T08:00:39.334Z,51.97
2018-01-23T08:03:06.894Z,48.80
2018-01-23T08:05:34.468Z,47.53
2018-01-23T08:08:02.107Z,48.60
2018-01-23T08:10:29.681Z,48.50
2018-01-23T08:12:57.785Z,51.60
2018-01-23T08:15:25.699Z,48.07
2018-01-23T08:17:54.207Z,50.90
2018-01-23T08:20:21.979Z,63.67
2018-01-23T08:22:49.556Z,56.93
2018-01-23T08:25:17.388Z,56.90
2018-01-23T08:27:44.924Z,50.50
2018-01-23T08:30:12.469Z,49.83
2018-01-23T08:32:40.924Z,52.50
2018-01-23T08:35:08.616Z,49.83
2018-01-23T08:37:37.583Z,54.57
2018-01-23T08:40:05.120Z,46.77
2018-01-23T08:42:32.664Z,46.50
2018-01-23T08:45:00.190Z,47.67
2018-01-23T08:47:28.802Z,43.27
2018-01-23T08:49:56.505Z,45.07
2018-01-23T08:52:24.979Z,43.57
2018-01-23T08:54:53.308Z,46.00
2018-01-23T08:57:21.603Z,40.57
2018-01-23T08:59:50.444Z,43.90
2018-01-23T09:02:18.139Z,40.90
2018-01-23T09:04:46.479Z,39.20
2018-01-23T09:07:14.245Z,42.57
2018-01-23T09:09:41.792Z,41.03
2018-01-23T09:12:09.364Z,41.57
2018-01-23T09:14:37.006Z,37.83
2018-01-23T09:17:04.578Z,37.17
2018-01-23T09:19:33.019Z,40.10
2018-01-23T09:22:00.748Z,39.33
2018-01-23T09:24:28.560Z,40.00
2018-01-23T09:26:57.002Z,36.63
2018-01-23T09:29:25.324Z,36.50
2018-01-23T09:31:53.281Z,39.43
2018-01-23T09:34:20.840Z,35.50
2018-01-23T09:36:48.396Z,33.97
2018-01-23T09:39:16.064Z,37.90
2018-01-23T09:41:43.592Z,45.17
2018-01-23T09:44:11.229Z,45.83
2018-01-23T09:46:38.760Z,56.07
2018-01-23T09:49:06.547Z,45.43
2018-01-23T09:51:34.322Z,43.23
2018-01-23T09:54:02.144Z,47.87
2018-01-23T09:56:29.680Z,50.63
2018-01-23T09:58:57.207Z,53.07
2018-01-23T10:01:25.024Z,53.60
2018-01-23T10:03:52.594Z,55.47
2018-01-23T10:06:20.159Z,55.60
2018-01-23T10:08:47.716Z,51.93
2018-01-23T10:11:15.254Z,55.77
2018-01-23T10:13:42.799Z,55.13
2018-01-23T10:16:10.478Z,48.97
2018-01-23T10:18:38.184Z,54.47
2018-01-23T10:21:05.880Z,53.97
2018-01-23T10:23:33.460Z,57.53
2018-01-23T10:26:00.968Z,60.30
2018-01-23T10:28:28.503Z,52.43
2018-01-23T10:30:56.116Z,45.63
2018-01-23T10:33:23.711Z,50.27
2018-01-23T10:35:51.475Z,47.33
2018-01-23T10:38:19.014Z,46.17
2018-01-23T10:40:47.517Z,45.33
2018-01-23T10:43:15.053Z,53.17
2018-01-23T10:45:43.480Z,62.77
2018-01-23T10:48:11.023Z,46.13
2018-01-23T10:50:38.568Z,50.60
2018-01-23T10:53:06.235Z,44.00
2018-01-23T10:55:34.112Z,50.00
2018-01-23T10:58:01.680Z,51.83
2018-01-23T11:00:29.719Z,50.57
2018-01-23T11:02:58.326Z,49.00
2018-01-23T11:05:27.318Z,52.53
2018-01-23T11:07:54.879Z,55.17
2018-01-23T11:10:22.695Z,61.23
2018-01-23T11:12:50.996Z,61.13
2018-01-23T11:15:18.548Z,56.37
2018-01-23T11:17:47.053Z,54.70
2018-01-23T11:20:15.523Z,56.50
2018-01-23T11:22:43.052Z,53.67
2018-01-23T11:25:10.826Z,50.77
2018-01-23T11:27:38.375Z,51.63
2018-01-23T11:30:05.947Z,51.77
2018-01-23T11:32:33.853Z,49.47
2018-01-23T11:35:02.247Z,49.10
2018-01-23T11:37:29.899Z,47.17
2018-01-23T11:39:58.459Z,45.33
2018-01-23T11:42:26.345Z,39.77
2018-01-23T11:44:54.182Z,41.27
2018-01-23T11:47:22.496Z,41.83
2018-01-23T11:49:50.071Z,44.47
2018-01-23T11:52:17.772Z,42.77
2018-01-23T11:54:46.507Z,39.73
2018-01-23T11:57:15.081Z,36.23
2018-01-23T11:59:42.627Z,41.43
2018-01-23T12:02:10.149Z,40.30
2018-01-23T12:04:37.871Z,39.53
2018-01-23T12:07:05.434Z,39.10
2018-01-23T12:09:32.960Z,40.70
2018-01-23T12:12:01.524Z,39.97
2018-01-23T12:14:30.565Z,39.03
2018-01-23T12:16:58.174Z,38.43
2018-01-23T12:19:26.512Z,39.73
2018-01-23T12:21:54.411Z,45.67
2018-01-23T12:24:22.010Z,44.47
2018-01-23T12:26:49.539Z,44.27
2018-01-23T12:29:17.071Z,42.13
2018-01-23T12:31:44.610Z,45.30
2018-01-23T12:34:12.172Z,45.40
2018-01-23T12:36:39.736Z,47.77
2018-01-23T12:39:07.315Z,44.73
2018-01-23T12:41:35.362Z,43.00
2018-01-23T12:44:04.252Z,45.70
2018-01-23T12:46:32.224Z,46.77
2018-01-23T12:49:00.665Z,45.87
2018-01-23T12:51:28.163Z,43.37
2018-01-23T12:53:55.689Z,42.93
2018-01-23T12:56:24.565Z,39.63
2018-01-23T12:58:52.913Z,40.43
2018-01-23T13:01:20.510Z,39.87
2018-01-23T13:03:48.793Z,41.07
2018-01-23T13:06:17.297Z,40.77
2018-01-23T13:08:44.836Z,42.67
2018-01-23T13:11:12.540Z,41.47
2018-01-23T13:13:40.526Z,37.93
2018-01-23T13:16:08.086Z,40.67
2018-01-23T13:21:10.388Z,38.70
2018-01-23T13:23:37.925Z,40.67
2018-01-23T13:26:05.619Z,38.83
2018-01-23T13:28:34.091Z,43.03
2018-01-23T13:31:01.721Z,39.40
2018-01-23T13:33:29.264Z,40.47
2018-01-23T13:35:57.958Z,41.57
2018-01-23T13:38:26.024Z,37.03
2018-01-23T13:40:54.216Z,37.87
2018-01-23T13:43:21.777Z,51.40
2018-01-23T13:45:49.319Z,42.07
2018-01-23T13:48:17.195Z,37.67
2018-01-23T13:50:44.745Z,40.60
2018-01-23T13:53:12.300Z,41.20
2018-01-23T13:55:40.559Z,41.80
2018-01-23T13:58:08.103Z,40.97
2018-01-23T14:00:36.974Z,42.00
2018-01-23T14:03:04.496Z,44.23
2018-01-23T14:05:32.195Z,38.63
2018-01-23T14:08:01.435Z,43.17
2018-01-23T14:10:29.030Z,43.63
2018-01-23T14:12:56.765Z,42.30
2018-01-23T14:15:25.260Z,45.20
2018-01-23T14:17:56.055Z,39.97
2018-01-23T14:20:23.673Z,44.37
2018-01-23T14:22:51.198Z,46.47
2018-01-23T14:25:18.772Z,46.53
2018-01-23T14:27:46.503Z,44.57
2018-01-23T14:30:16.572Z,45.40
2018-01-23T14:32:44.848Z,46.67
2018-01-23T14:35:12.638Z,46.67
2018-01-23T14:37:40.335Z,47.63
2018-01-23T14:40:08.106Z,46.07
2018-01-23T14:42:36.491Z,53.37
2018-01-23T14:45:03.993Z,52.90
2018-01-23T14:47:31.735Z,46.27
2018-01-23T14:49:59.495Z,49.77
2018-01-23T14:52:27.482Z,50.80
2018-01-23T14:54:55.234Z,44.07
2018-01-23T14:57:23.110Z,47.60
2018-01-23T14:59:50.697Z,40.53
2018-01-23T15:02:18.235Z,48.17
2018-01-23T15:04:45.746Z,44.57
2018-01-23T15:07:14.699Z,41.93
2018-01-23T15:09:42.388Z,44.37
2018-01-23T15:12:11.885Z,40.23
2018-01-23T15:14:39.558Z,40.17
2018-01-23T15:17:07.259Z,41.73
2018-01-23T15:19:34.796Z,39.57
2018-01-23T15:22:03.240Z,49.40
2018-01-23T15:24:30.850Z,43.17
2018-01-23T15:26:58.398Z,44.37
2018-01-23T15:29:26.823Z,41.03
2018-01-23T15:31:54.364Z,44.90
2018-01-23T15:34:21.900Z,47.67
2018-01-23T15:36:49.810Z,50.17
2018-01-23T15:39:17.375Z,44.90
2018-01-23T15:41:44.899Z,45.90
2018-01-23T15:44:13.520Z,48.37
2018-01-23T15:46:41.064Z,44.87
2018-01-23T15:49:08.764Z,44.07
2018-01-23T15:51:37.735Z,45.27
2018-01-23T15:54:05.654Z,47.37
2018-01-23T15:56:33.201Z,47.60
2018-01-23T15:59:00.843Z,50.30
2018-01-23T16:01:29.447Z,52.33
2018-01-23T16:03:57.734Z,50.37
2018-01-23T16:06:26.034Z,54.97
2018-01-23T16:08:54.146Z,55.10
2018-01-23T16:11:22.558Z,54.33
2018-01-23T16:13:50.459Z,53.57
2018-01-23T16:16:18.388Z,55.73
2018-01-23T16:18:47.298Z,58.10
2018-01-23T16:21:15.027Z,58.60
2018-01-23T16:23:42.590Z,54.37
2018-01-23T16:26:10.301Z,55.93
2018-01-23T16:28:38.047Z,51.60
2018-01-23T16:31:06.664Z,50.43
2018-01-23T16:33:35.100Z,55.07
2018-01-23T16:36:03.505Z,50.83
2018-01-23T16:38:31.377Z,49.80
2018-01-23T16:40:58.954Z,52.77
2018-01-23T16:43:26.650Z,53.70
2018-01-23T16:45:54.215Z,52.13
2018-01-23T16:48:21.811Z,53.50
2018-01-23T16:50:49.868Z,62.10
2018-01-23T16:53:17.575Z,59.37
2018-01-23T16:55:45.238Z,55.87
2018-01-23T16:58:12.827Z,48.33
2018-01-23T17:00:40.436Z,51.77
2018-01-23T17:03:08.025Z,62.43
2018-01-23T17:05:35.586Z,56.10
2018-01-23T17:08:04.147Z,64.70
2018-01-23T17:10:31.707Z,55.23
2018-01-23T17:12:59.304Z,48.50
2018-01-23T17:15:26.872Z,52.37
2018-01-23T17:17:54.440Z,49.43
2018-01-23T17:20:21.980Z,52.30
2018-01-23T17:22:49.958Z,53.97
2018-01-23T17:25:17.614Z,53.77
2018-01-23T17:27:46.448Z,54.87
2018-01-23T17:30:15.561Z,54.17
2018-01-23T17:32:45.057Z,50.70
2018-01-23T17:35:12.756Z,51.10
2018-01-23T17:37:40.596Z,56.90
2018-01-23T17:40:08.793Z,49.07
2018-01-23T17:42:36.784Z,50.97
2018-01-23T17:45:04.543Z,51.53
2018-01-23T17:47:32.283Z,52.00
2018-01-23T17:49:59.967Z,48.93
2018-01-23T17:52:27.500Z,52.50
2018-01-23T17:54:56.333Z,46.83
2018-01-23T17:57:23.876Z,49.13
2018-01-23T17:59:51.903Z,49.13
2018-01-23T18:02:19.556Z,44.83
2018-01-23T18:04:47.838Z,48.93
2018-01-23T18:07:15.423Z,47.47
2018-01-23T18:09:42.963Z,47.87
2018-01-23T18:12:11.194Z,47.87
2018-01-23T18:14:38.842Z,44.47
2018-01-23T18:17:06.455Z,43.63
2018-01-23T18:19:35.944Z,44.30
2018-01-23T18:22:03.801Z,50.93
2018-01-23T18:24:31.412Z,62.07
2018-01-23T18:26:59.027Z,40.50
2018-01-23T18:29:26.688Z,50.10
2018-01-23T18:31:54.400Z,53.27
2018-01-23T18:34:21.931Z,50.10
2018-01-23T18:36:49.455Z,53.47
2018-01-23T18:39:18.497Z,52.17
2018-01-23T18:41:46.456Z,50.23
2018-01-23T18:44:13.985Z,56.63
2018-01-23T18:46:43.415Z,59.73
2018-01-23T18:49:12.185Z,50.80
2018-01-23T18:51:39.851Z,50.67
2018-01-23T18:54:08.205Z,59.03
2018-01-23T18:56:35.776Z,51.13
2018-01-23T18:59:03.356Z,53.97
2018-01-23T19:01:30.918Z,132.60
2018-01-23T19:03:58.476Z,46.60
2018-01-23T19:06:26.691Z,48.63
2018-01-23T19:08:54.211Z,52.53
2018-01-23T19:11:21.760Z,45.33
2018-01-23T19:13:49.465Z,39.83
2018-01-23T19:16:17.061Z,38.33
2018-01-23T19:18:45.326Z,39.17
2018-01-23T19:21:13.711Z,37.17
2018-01-23T19:23:41.261Z,39.57
2018-01-23T19:26:08.768Z,36.27
2018-01-23T19:28:36.310Z,38.87
2018-01-23T19:31:03.875Z,38.50
2018-01-23T19:33:31.417Z,34.97
2018-01-23T19:35:59.241Z,38.27
2018-01-23T19:38:26.921Z,34.10
2018-01-23T19:40:54.465Z,43.60
2018-01-23T19:43:22.143Z,35.93
2018-01-23T19:45:49.692Z,38.57
2018-01-23T19:48:17.491Z,33.80
2018-01-23T19:50:45.034Z,33.20
2018-01-23T19:53:12.575Z,42.20
2018-01-23T19:55:40.095Z,30.73
2018-01-23T19:58:08.455Z,33.23
2018-01-23T20:00:36.330Z,37.77
2018-01-23T20:03:04.114Z,41.23
2018-01-23T20:05:32.445Z,39.77
2018-01-23T20:08:00.042Z,32.90
2018-01-23T20:10:27.603Z,31.37
2018-01-23T20:12:55.145Z,29.80
2018-01-23T20:15:22.679Z,34.07
2018-01-23T20:17:51.274Z,29.10
2018-01-23T20:20:18.827Z,28.40
2018-01-23T20:22:46.438Z,26.17
2018-01-23T20:25:14.755Z,29.67
2018-01-23T20:27:42.324Z,26.73
2018-01-23T20:30:10.720Z,24.17
2018-01-23T20:32:38.670Z,28.03
2018-01-23T20:35:07.763Z,23.37
2018-01-23T20:37:35.319Z,26.53
2018-01-23T20:40:07.987Z,26.63
2018-01-23T20:42:35.526Z,26.10
2018-01-23T20:45:03.073Z,23.03
2018-01-23T20:47:30.668Z,25.43
2018-01-23T20:49:58.269Z,23.40
2018-01-23T20:52:25.925Z,24.80
2018-01-23T20:54:53.527Z,21.17
2018-01-23T20:57:21.103Z,25.13
2018-01-23T20:59:49.051Z,23.97
2018-01-23T21:02:17.361Z,21.17
2018-01-23T21:04:44.914Z,22.80
2018-01-23T21:07:12.420Z,19.80
2018-01-23T21:09:39.935Z,21.40
2018-01-23T21:12:07.497Z,22.20
2018-01-23T21:14:35.042Z,20.87
2018-01-23T21:17:02.631Z,19.67
2018-01-23T21:19:30.177Z,18.87
2018-01-23T21:21:57.722Z,22.07
2018-01-23T21:24:25.267Z,17.97
2018-01-23T21:26:52.765Z,23.73
2018-01-23T21:29:20.507Z,18.30
2018-01-23T21:31:48.065Z,18.83
2018-01-23T21:34:16.035Z,28.93
2018-01-23T21:36:43.630Z,16.63
2018-01-23T21:39:11.187Z,17.87
2018-01-23T21:41:38.891Z,19.90
2018-01-23T21:44:06.513Z,19.77
2018-01-23T21:46:34.827Z,17.63
2018-01-23T21:49:03.670Z,20.23
2018-01-23T21:51:31.538Z,24.90
2018-01-23T21:53:59.610Z,24.43
2018-01-23T21:56:27.180Z,18.73
2018-01-23T21:58:54.795Z,17.20
2018-01-23T22:01:22.726Z,20.47
2018-01-23T22:03:50.570Z,18.77
2018-01-23T22:06:19.796Z,16.87
2018-01-23T22:08:47.786Z,18.17
2018-01-23T22:11:16.665Z,18.87
2018-01-23T22:13:45.124Z,17.23
2018-01-23T22:16:13.584Z,17.70
2018-01-23T22:18:41.331Z,22.93
2018-01-23T22:21:08.920Z,18.13
2018-01-23T22:23:36.531Z,16.10
2018-01-23T22:26:04.238Z,15.30
2018-01-23T22:28:33.850Z,15.57
2018-01-23T22:31:01.811Z,12.70
2018-01-23T22:33:29.365Z,14.53
2018-01-23T22:35:57.534Z,16.50
2018-01-23T22:38:25.086Z,14.03
2018-01-23T22:40:54.089Z,14.13
2018-01-23T22:43:21.881Z,17.30
2018-01-23T22:45:49.736Z,12.90
2018-01-23T22:48:17.389Z,17.73
2018-01-23T22:50:44.999Z,15.47
2018-01-23T22:53:12.516Z,13.83
2018-01-23T22:55:40.635Z,13.63
2018-01-23T22:58:09.683Z,10.90
2018-01-23T23:00:37.274Z,11.80
2018-01-23T23:03:04.810Z,14.20
2018-01-23T23:05:32.357Z,13.73
2018-01-23T23:07:59.878Z,12.73
2018-01-23T23:10:28.223Z,14.43
2018-01-23T23:12:55.821Z,12.90
2018-01-23T23:15:24.132Z,15.20
2018-01-23T23:17:52.627Z,13.20
2018-01-23T23:20:20.174Z,11.97
2018-01-23T23:22:48.504Z,12.40
2018-01-23T23:25:16.990Z,9.10
2018-01-23T23:27:46.161Z,14.13
2018-01-23T23:30:13.894Z,12.03
2018-01-23T23:32:42.449Z,12.47
2018-01-23T23:35:10.897Z,16.20
2018-01-23T23:37:38.415Z,11.13
2018-01-23T23:40:05.950Z,12.57
2018-01-23T23:42:33.500Z,13.87
2018-01-23T23:45:01.815Z,18.57
2018-01-23T23:47:29.335Z,14.80
2018-01-23T23:49:56.892Z,15.83
2018-01-23T23:52:25.292Z,13.57
2018-01-23T23:54:53.176Z,15.77
2018-01-23T23:57:20.721Z,18.00
2018-01-23T23:59:48.309Z,13.63
